createdAt,value
2018-06-18T00:00:27.116Z,99.90
2018-06-18T00:02:55.551Z,99.90
2018-06-18T00:05:23.961Z,99.90
2018-06-18T00:07:52.380Z,99.90
2018-06-18T00:10:20.776Z,99.90
2018-06-18T00:12:49.196Z,99.90
2018-06-18T00:15:17.600Z,99.90
2018-06-18T00:17:46.019Z,99.90
2018-06-18T00:20:14.424Z,99.90
2018-06-18T00:22:42.853Z,99.90
2018-06-18T00:25:11.259Z,99.90
2018-06-18T00:27:39.679Z,99.90
2018-06-18T00:30:08.095Z,99.90
2018-06-18T00:32:36.516Z,99.90
2018-06-18T00:35:04.924Z,99.90
2018-06-18T00:37:33.348Z,99.90
2018-06-18T00:40:01.751Z,99.90
2018-06-18T00:44:58.272Z,99.90
2018-06-18T00:47:26.710Z,99.90
2018-06-18T00:49:55.117Z,99.90
2018-06-18T00:52:23.515Z,99.90
2018-06-18T00:54:51.939Z,99.90
2018-06-18T00:57:20.350Z,99.90
2018-06-18T00:59:48.772Z,99.90
2018-06-18T01:02:17.178Z,99.90
2018-06-18T01:04:45.607Z,99.90
2018-06-18T01:07:14.014Z,99.90
2018-06-18T01:09:42.435Z,99.90
2018-06-18T01:12:10.860Z,99.90
2018-06-18T01:14:39.279Z,99.90
2018-06-18T01:17:07.680Z,99.90
2018-06-18T01:19:36.114Z,99.90
2018-06-18T01:22:04.659Z,99.90
2018-06-18T01:24:37.444Z,99.90
2018-06-18T01:27:05.848Z,99.90
2018-06-18T01:29:34.304Z,99.90
2018-06-18T01:32:02.753Z,99.90
2018-06-18T01:34:31.174Z,99.90
2018-06-18T01:36:59.600Z,99.90
2018-06-18T01:39:28.021Z,99.90
2018-06-18T01:41:56.413Z,99.90
2018-06-18T01:44:24.844Z,99.90
2018-06-18T01:46:53.252Z,99.90
2018-06-18T01:49:21.648Z,99.90
2018-06-18T01:51:50.076Z,99.90
2018-06-18T01:54:18.484Z,99.90
2018-06-18T01:56:46.921Z,99.90
2018-06-18T01:59:15.331Z,99.90
2018-06-18T02:01:43.768Z,99.90
2018-06-18T02:04:12.212Z,99.90
2018-06-18T02:06:40.640Z,99.90
2018-06-18T02:09:10.864Z,99.90
2018-06-18T02:11:39.415Z,99.90
2018-06-18T02:14:08.193Z,99.90
2018-06-18T02:16:36.644Z,99.90
2018-06-18T02:19:05.063Z,99.90
2018-06-18T02:21:33.660Z,99.90
2018-06-18T02:24:06.296Z,99.90
2018-06-18T02:26:37.379Z,99.90
2018-06-18T02:29:15.351Z,99.90
2018-06-18T02:31:52.685Z,99.90
2018-06-18T02:34:28.016Z,99.90
2018-06-18T02:37:06.937Z,99.90
2018-06-18T02:39:44.053Z,99.90
2018-06-18T02:42:15.582Z,99.90
2018-06-18T02:44:46.532Z,99.90
2018-06-18T02:47:14.949Z,99.90
2018-06-18T02:49:43.348Z,99.90
2018-06-18T02:52:11.763Z,99.90
2018-06-18T02:57:09.800Z,99.90
2018-06-18T02:59:38.210Z,99.90
2018-06-18T03:02:06.771Z,99.90
2018-06-18T03:04:35.199Z,99.90
2018-06-18T03:07:03.644Z,99.90
2018-06-18T03:09:32.056Z,99.90
2018-06-18T03:14:28.609Z,99.90
2018-06-18T03:16:57.031Z,99.90
2018-06-18T03:19:30.799Z,99.90
2018-06-18T03:22:04.508Z,99.90
2018-06-18T03:24:38.114Z,99.90
2018-06-18T03:27:12.000Z,99.90
2018-06-18T03:29:40.444Z,99.90
2018-06-18T03:32:12.916Z,99.90
2018-06-18T03:34:41.308Z,99.90
2018-06-18T03:37:11.872Z,99.90
2018-06-18T03:39:40.301Z,99.90
2018-06-18T03:42:08.735Z,99.90
2018-06-18T03:46:11.167Z,99.90
2018-06-18T03:48:39.589Z,99.90
2018-06-18T03:51:07.996Z,99.90
2018-06-18T03:53:36.405Z,99.90
2018-06-18T03:56:04.797Z,99.90
2018-06-18T03:58:33.231Z,99.90
2018-06-18T04:02:20.868Z,99.90
2018-06-18T04:04:57.550Z,99.90
2018-06-18T04:07:35.212Z,99.90
2018-06-18T04:10:09.213Z,99.90
2018-06-18T04:12:37.613Z,99.90
2018-06-18T04:15:06.117Z,99.90
2018-06-18T04:17:34.523Z,99.90
2018-06-18T04:20:02.941Z,99.90
2018-06-18T04:22:31.339Z,99.90
2018-06-18T04:24:59.714Z,99.90
2018-06-18T04:27:28.124Z,99.90
2018-06-18T04:29:56.497Z,99.90
2018-06-18T04:34:58.020Z,99.90
2018-06-18T04:37:26.400Z,99.90
2018-06-18T04:39:54.806Z,99.90
2018-06-18T04:42:28.578Z,99.90
2018-06-18T04:45:02.472Z,99.90
2018-06-18T04:47:36.264Z,99.90
2018-06-18T04:52:38.300Z,99.90
2018-06-18T04:55:06.711Z,99.90
2018-06-18T04:57:35.097Z,99.90
2018-06-18T05:00:15.853Z,99.90
2018-06-18T05:02:44.226Z,99.90
2018-06-18T05:05:12.655Z,99.90
2018-06-18T05:07:41.048Z,99.90
2018-06-18T05:10:18.561Z,99.90
2018-06-18T05:12:46.964Z,99.90
2018-06-18T05:15:15.455Z,99.90
2018-06-18T05:17:43.860Z,99.90
2018-06-18T05:20:12.280Z,99.40
2018-06-18T05:22:40.682Z,97.30
2018-06-18T05:25:09.087Z,91.80
2018-06-18T05:27:37.488Z,90.90
2018-06-18T05:30:12.557Z,92.50
2018-06-18T05:32:41.219Z,92.40
2018-06-18T05:35:10.839Z,89.00
2018-06-18T05:37:43.532Z,79.50
2018-06-18T05:40:11.946Z,74.00
2018-06-18T05:42:40.331Z,65.20
2018-06-18T05:45:08.756Z,61.40
2018-06-18T05:47:37.144Z,59.10
2018-06-18T05:50:05.608Z,56.10
2018-06-18T05:52:33.997Z,54.80
2018-06-18T05:55:02.808Z,54.80
2018-06-18T05:57:31.780Z,56.70
2018-06-18T06:00:00.196Z,61.70
2018-06-18T06:02:28.625Z,68.70
2018-06-18T06:04:57.049Z,73.00
2018-06-18T06:07:25.468Z,76.60
2018-06-18T06:09:53.869Z,79.00
2018-06-18T06:12:22.303Z,81.90
2018-06-18T06:14:50.700Z,82.80
2018-06-18T06:17:19.131Z,84.90
2018-06-18T06:19:47.523Z,81.80
2018-06-18T06:22:15.944Z,80.60
2018-06-18T06:24:44.335Z,83.30
2018-06-18T06:27:12.748Z,84.00
2018-06-18T06:29:41.197Z,85.60
2018-06-18T06:32:09.751Z,86.60
2018-06-18T06:34:38.697Z,87.70
2018-06-18T06:37:07.150Z,88.80
2018-06-18T06:39:35.851Z,91.00
2018-06-18T06:42:08.263Z,91.50
2018-06-18T06:44:36.656Z,92.20
2018-06-18T06:47:05.073Z,93.40
2018-06-18T06:49:33.456Z,92.90
2018-06-18T06:52:01.888Z,92.30
2018-06-18T06:54:30.272Z,92.80
2018-06-18T06:56:58.706Z,92.60
2018-06-18T06:59:27.107Z,93.10
2018-06-18T07:01:55.497Z,94.00
2018-06-18T07:04:23.933Z,93.40
2018-06-18T07:06:52.304Z,93.20
2018-06-18T07:09:20.703Z,93.40
2018-06-18T07:11:49.127Z,92.80
2018-06-18T07:14:17.546Z,93.40
2018-06-18T07:16:45.920Z,92.70
2018-06-18T07:19:14.325Z,92.80
2018-06-18T07:21:42.716Z,91.60
2018-06-18T07:24:11.295Z,91.80
2018-06-18T07:29:07.787Z,92.30
2018-06-18T07:31:36.156Z,91.50
2018-06-18T07:34:04.558Z,90.80
2018-06-18T07:36:32.928Z,90.60
2018-06-18T07:39:01.323Z,90.20
2018-06-18T07:41:29.702Z,92.20
2018-06-18T07:43:58.108Z,89.80
2018-06-18T07:46:26.487Z,89.00
2018-06-18T07:48:54.890Z,84.80
2018-06-18T07:51:23.295Z,83.20
2018-06-18T07:53:51.697Z,82.10
2018-06-18T07:56:20.104Z,82.70
2018-06-18T07:58:48.504Z,82.60
2018-06-18T08:01:16.903Z,82.60
2018-06-18T08:03:45.593Z,83.70
2018-06-18T08:06:14.134Z,83.10
2018-06-18T08:08:42.541Z,84.20
2018-06-18T08:11:10.959Z,81.50
2018-06-18T08:13:39.367Z,84.00
2018-06-18T08:16:07.788Z,83.60
2018-06-18T08:18:36.175Z,83.00
2018-06-18T08:21:04.603Z,83.80
2018-06-18T08:23:33.007Z,83.10
2018-06-18T08:26:01.443Z,81.20
2018-06-18T08:28:29.837Z,78.80
2018-06-18T08:30:58.247Z,78.20
2018-06-18T08:33:26.644Z,78.30
2018-06-18T08:35:55.066Z,77.40
2018-06-18T08:38:23.455Z,73.20
2018-06-18T08:40:51.900Z,73.20
2018-06-18T08:43:20.280Z,72.50
2018-06-18T08:45:48.738Z,70.10
2018-06-18T08:48:22.589Z,71.50
2018-06-18T08:50:56.343Z,68.10
2018-06-18T08:53:29.924Z,71.50
2018-06-18T08:56:03.512Z,69.30
2018-06-18T08:58:37.281Z,69.90
2018-06-18T09:01:08.264Z,72.50
2018-06-18T09:03:42.199Z,74.20
2018-06-18T09:06:10.596Z,72.00
2018-06-18T09:08:44.247Z,71.50
2018-06-18T09:11:12.643Z,71.70
2018-06-18T09:13:41.029Z,72.60
2018-06-18T09:16:09.471Z,74.30
2018-06-18T09:18:38.072Z,72.40
2018-06-18T09:21:06.508Z,67.10
2018-06-18T09:23:34.928Z,63.20
2018-06-18T09:26:09.662Z,63.00
2018-06-18T09:28:38.039Z,66.50
2018-06-18T09:31:06.464Z,64.90
2018-06-18T09:33:34.857Z,66.00
2018-06-18T09:36:03.268Z,64.90
2018-06-18T09:38:31.647Z,63.40
2018-06-18T09:41:00.045Z,59.70
2018-06-18T09:43:28.423Z,63.20
2018-06-18T09:45:56.828Z,62.10
2018-06-18T09:51:04.151Z,68.50
2018-06-18T09:53:37.889Z,65.10
2018-06-18T09:56:11.658Z,68.20
2018-06-18T09:58:45.369Z,62.80
2018-06-18T10:01:21.952Z,67.10
2018-06-18T10:03:51.015Z,62.00
2018-06-18T10:08:48.222Z,62.50
2018-06-18T10:11:16.496Z,61.50
2018-06-18T10:13:44.898Z,65.40
2018-06-18T10:16:13.276Z,65.60
2018-06-18T10:18:41.676Z,68.60
2018-06-18T10:21:10.065Z,67.20
2018-06-18T10:23:38.459Z,68.60
2018-06-18T10:26:06.822Z,66.10
2018-06-18T10:28:35.214Z,69.20
2018-06-18T10:31:03.661Z,71.10
2018-06-18T10:34:35.368Z,65.70
2018-06-18T10:37:09.132Z,67.90
2018-06-18T10:39:42.960Z,64.00
2018-06-18T10:42:16.785Z,64.90
2018-06-18T10:44:45.181Z,65.20
2018-06-18T10:47:13.564Z,66.10
2018-06-18T10:49:41.959Z,66.90
2018-06-18T10:52:10.343Z,65.40
2018-06-18T10:54:38.779Z,64.50
2018-06-18T10:57:07.166Z,64.10
2018-06-18T10:59:35.564Z,62.10
2018-06-18T11:02:03.975Z,65.50
2018-06-18T11:04:32.416Z,66.00
2018-06-18T11:07:00.807Z,68.10
2018-06-18T11:09:29.255Z,66.00
2018-06-18T11:11:57.644Z,67.30
2018-06-18T11:14:26.052Z,59.30
2018-06-18T11:16:59.907Z,58.10
2018-06-18T11:19:33.668Z,62.90
2018-06-18T11:22:05.664Z,64.10
2018-06-18T11:24:39.519Z,66.40
2018-06-18T11:27:08.158Z,67.70
2018-06-18T11:29:36.784Z,66.50
2018-06-18T11:32:05.315Z,66.10
2018-06-18T11:34:33.736Z,67.60
2018-06-18T11:37:02.140Z,67.80
2018-06-18T11:39:30.573Z,67.40
2018-06-18T11:41:59.054Z,68.30
2018-06-18T11:44:27.372Z,67.10
2018-06-18T11:46:58.675Z,67.40
2018-06-18T11:49:27.080Z,69.20
2018-06-18T11:51:55.493Z,70.90
2018-06-18T11:54:23.962Z,72.70
2018-06-18T11:56:52.332Z,73.80
2018-06-18T11:59:26.003Z,71.90
2018-06-18T12:01:59.681Z,71.00
2018-06-18T12:04:33.407Z,72.20
2018-06-18T12:08:09.219Z,72.40
2018-06-18T12:10:37.651Z,72.50
2018-06-18T12:13:06.668Z,73.70
2018-06-18T12:18:03.168Z,70.50
2018-06-18T12:20:31.918Z,70.60
2018-06-18T12:23:00.617Z,72.30
2018-06-18T12:25:29.008Z,72.20
2018-06-18T12:27:57.479Z,71.10
2018-06-18T12:30:25.880Z,71.00
2018-06-18T12:32:54.290Z,71.20
2018-06-18T12:35:22.686Z,72.40
2018-06-18T12:37:51.099Z,72.50
2018-06-18T12:40:19.498Z,70.70
2018-06-18T12:42:47.935Z,72.20
2018-06-18T12:45:23.371Z,74.20
2018-06-18T12:47:57.119Z,70.70
2018-06-18T12:50:30.814Z,72.20
2018-06-18T12:53:04.672Z,72.30
2018-06-18T12:55:38.476Z,72.70
2018-06-18T12:58:06.910Z,70.60
2018-06-18T13:00:35.328Z,70.80
2018-06-18T13:03:11.763Z,71.90
2018-06-18T13:05:40.197Z,71.10
2018-06-18T13:08:08.746Z,69.90
2018-06-18T13:10:37.156Z,70.20
2018-06-18T13:13:05.563Z,70.20
2018-06-18T13:15:33.968Z,70.50
2018-06-18T13:18:02.393Z,66.90
2018-06-18T13:20:30.800Z,67.90
2018-06-18T13:22:59.209Z,67.80
2018-06-18T13:25:27.629Z,68.00
2018-06-18T13:28:01.424Z,68.20
2018-06-18T13:30:29.859Z,69.70
2018-06-18T13:32:58.272Z,70.30
2018-06-18T13:38:00.166Z,70.60
2018-06-18T13:40:34.075Z,71.10
2018-06-18T13:43:07.959Z,68.20
2018-06-18T13:45:42.515Z,69.90
2018-06-18T13:48:16.283Z,69.90
2018-06-18T13:50:44.696Z,69.80
2018-06-18T13:53:13.117Z,71.90
2018-06-18T13:55:41.546Z,72.10
2018-06-18T13:58:09.937Z,70.10
2018-06-18T14:00:38.611Z,70.50
2018-06-18T14:03:07.029Z,71.20
2018-06-18T14:05:35.451Z,71.40
2018-06-18T14:08:03.904Z,70.20
2018-06-18T14:10:32.341Z,71.00
2018-06-18T14:13:00.712Z,71.10
2018-06-18T14:15:29.108Z,73.00
2018-06-18T14:20:26.596Z,72.30
2018-06-18T14:25:23.330Z,72.20
2018-06-18T14:27:51.691Z,71.00
2018-06-18T14:30:25.424Z,73.00
2018-06-18T14:32:59.120Z,71.90
2018-06-18T14:35:32.839Z,73.50
2018-06-18T14:38:06.536Z,73.80
2018-06-18T14:40:34.931Z,73.60
2018-06-18T14:43:03.300Z,73.90
2018-06-18T14:47:59.803Z,75.30
2018-06-18T14:50:28.203Z,75.00
2018-06-18T14:52:56.580Z,73.40
2018-06-18T14:55:24.964Z,75.30
2018-06-18T14:57:53.363Z,74.10
2018-06-18T15:00:27.060Z,73.20
2018-06-18T15:02:55.696Z,73.30
2018-06-18T15:05:25.831Z,74.10
2018-06-18T15:07:54.242Z,75.10
2018-06-18T15:10:26.851Z,74.70
2018-06-18T15:12:55.548Z,75.60
2018-06-18T15:15:29.164Z,75.20
2018-06-18T15:17:57.622Z,76.20
2018-06-18T15:20:26.003Z,75.50
2018-06-18T15:23:00.971Z,74.10
2018-06-18T15:25:38.270Z,74.70
2018-06-18T15:28:06.699Z,74.70
2018-06-18T15:30:35.090Z,75.50
2018-06-18T15:33:03.710Z,76.20
2018-06-18T15:35:32.379Z,74.30
2018-06-18T15:38:00.804Z,76.10
2018-06-18T15:40:29.207Z,78.30
2018-06-18T15:42:57.619Z,76.20
2018-06-18T15:45:26.023Z,75.80
2018-06-18T15:47:54.472Z,76.70
2018-06-18T15:50:22.891Z,76.00
2018-06-18T15:52:51.416Z,75.60
2018-06-18T15:55:19.808Z,76.50
2018-06-18T15:57:48.236Z,75.80
2018-06-18T16:00:16.621Z,75.60
2018-06-18T16:02:45.056Z,76.10
2018-06-18T16:05:13.472Z,75.20
2018-06-18T16:10:09.995Z,77.30
2018-06-18T16:12:38.391Z,77.20
2018-06-18T16:15:06.805Z,78.50
2018-06-18T16:17:35.204Z,79.10
2018-06-18T16:20:03.814Z,78.80
2018-06-18T16:22:32.212Z,78.70
2018-06-18T16:25:00.687Z,78.80
2018-06-18T16:27:29.615Z,79.20
2018-06-18T16:29:58.030Z,78.90
2018-06-18T16:32:26.428Z,78.90
2018-06-18T16:34:54.836Z,81.10
2018-06-18T16:37:23.270Z,79.40
2018-06-18T16:39:51.773Z,80.20
2018-06-18T16:42:20.182Z,81.80
2018-06-18T16:44:48.593Z,81.90
2018-06-18T16:47:16.986Z,82.40
2018-06-18T16:49:45.400Z,81.40
2018-06-18T16:52:13.791Z,81.50
2018-06-18T16:54:42.211Z,82.60
2018-06-18T16:57:10.802Z,83.60
2018-06-18T16:59:39.207Z,82.20
2018-06-18T17:02:07.763Z,83.10
2018-06-18T17:04:36.164Z,82.80
2018-06-18T17:07:04.643Z,82.10
2018-06-18T17:09:33.015Z,82.00
2018-06-18T17:12:01.432Z,82.00
2018-06-18T17:14:29.818Z,83.00
2018-06-18T17:16:58.232Z,83.60
2018-06-18T17:19:26.611Z,82.80
2018-06-18T17:21:55.013Z,83.90
2018-06-18T17:24:23.384Z,84.40
2018-06-18T17:26:51.775Z,85.40
2018-06-18T17:29:20.148Z,86.70
2018-06-18T17:31:48.567Z,85.10
2018-06-18T17:34:16.953Z,86.30
2018-06-18T17:36:45.350Z,86.50
2018-06-18T17:39:13.990Z,85.80
2018-06-18T17:41:42.382Z,86.70
2018-06-18T17:44:10.759Z,87.00
2018-06-18T17:46:39.160Z,87.80
2018-06-18T17:49:07.805Z,88.30
2018-06-18T17:51:36.212Z,88.80
2018-06-18T17:54:04.609Z,90.20
2018-06-18T17:56:33.175Z,90.30
2018-06-18T17:59:02.347Z,90.80
2018-06-18T18:01:30.954Z,90.60
2018-06-18T18:06:27.540Z,91.00
2018-06-18T18:08:55.928Z,91.10
2018-06-18T18:11:24.347Z,91.40
2018-06-18T18:13:52.786Z,91.00
2018-06-18T18:16:21.412Z,90.60
2018-06-18T18:18:49.819Z,91.30
2018-06-18T18:21:18.211Z,91.70
2018-06-18T18:23:46.619Z,91.90
2018-06-18T18:26:15.036Z,91.80
2018-06-18T18:28:43.520Z,91.80
2018-06-18T18:31:11.874Z,91.60
2018-06-18T18:33:40.279Z,92.10
2018-06-18T18:36:08.677Z,92.60
2018-06-18T18:38:43.600Z,93.00
2018-06-18T18:41:11.996Z,94.10
2018-06-18T18:43:40.403Z,94.40
2018-06-18T18:46:08.796Z,94.60
2018-06-18T18:48:37.225Z,94.70
2018-06-18T18:51:05.620Z,95.10
2018-06-18T18:53:34.053Z,95.60
2018-06-18T18:56:13.657Z,96.40
2018-06-18T18:59:46.259Z,96.30
2018-06-18T19:02:14.667Z,96.20
2018-06-18T19:04:55.514Z,96.00
2018-06-18T19:07:32.549Z,96.80
2018-06-18T19:10:35.125Z,96.70
2018-06-18T19:13:06.984Z,96.50
2018-06-18T19:15:35.447Z,96.30
2018-06-18T19:18:03.908Z,96.50
2018-06-18T19:20:36.816Z,96.80
2018-06-18T19:23:05.479Z,96.80
2018-06-18T19:25:33.953Z,98.60
2018-06-18T19:28:02.339Z,99.90
2018-06-18T19:30:31.468Z,99.90
2018-06-18T19:33:03.243Z,99.90
2018-06-18T19:35:31.673Z,99.90
2018-06-18T19:38:00.065Z,99.90
2018-06-18T19:40:28.508Z,99.90
2018-06-18T19:42:56.896Z,99.90
2018-06-18T19:45:26.609Z,99.90
2018-06-18T19:48:02.863Z,99.90
2018-06-18T19:50:31.284Z,99.90
2018-06-18T19:52:59.711Z,99.90
2018-06-18T19:55:31.029Z,99.90
2018-06-18T19:57:59.456Z,99.90
2018-06-18T20:00:31.599Z,99.90
2018-06-18T20:03:00.005Z,99.90
2018-06-18T20:05:28.395Z,99.90
2018-06-18T20:08:04.203Z,99.90
2018-06-18T20:10:32.598Z,99.90
2018-06-18T20:13:01.020Z,99.90
2018-06-18T20:15:29.423Z,99.90
2018-06-18T20:20:25.930Z,99.90
2018-06-18T20:22:55.298Z,99.90
2018-06-18T20:25:27.656Z,99.90
2018-06-18T20:27:56.048Z,99.90
2018-06-18T20:30:24.440Z,99.90
2018-06-18T20:32:52.855Z,99.90
2018-06-18T20:35:27.419Z,99.90
2018-06-18T20:37:55.824Z,99.90
2018-06-18T20:40:24.220Z,99.90
2018-06-18T20:42:52.688Z,99.90
2018-06-18T20:45:21.126Z,99.90
2018-06-18T20:47:49.524Z,99.90
2018-06-18T20:50:18.037Z,99.90
2018-06-18T20:52:46.925Z,99.90
2018-06-18T20:55:15.382Z,99.90
2018-06-18T20:57:43.823Z,99.90
2018-06-18T21:00:12.237Z,99.90
2018-06-18T21:02:40.714Z,99.90
2018-06-18T21:05:09.063Z,99.90
2018-06-18T21:07:37.480Z,99.90
2018-06-18T21:10:05.955Z,99.90
2018-06-18T21:12:34.687Z,99.90
2018-06-18T21:15:03.087Z,99.90
2018-06-18T21:17:31.479Z,99.90
2018-06-18T21:19:59.897Z,99.90
2018-06-18T21:22:28.287Z,99.90
2018-06-18T21:24:56.664Z,99.90
2018-06-18T21:27:25.054Z,99.90
2018-06-18T21:32:21.551Z,99.90
2018-06-18T21:34:49.954Z,99.90
2018-06-18T21:37:18.326Z,99.90
2018-06-18T21:39:46.715Z,99.90
2018-06-18T21:42:15.100Z,99.90
2018-06-18T21:44:50.627Z,99.90
2018-06-18T21:47:19.044Z,99.90
2018-06-18T21:49:47.447Z,99.90
2018-06-18T21:52:15.824Z,99.90
2018-06-18T21:57:12.324Z,99.90
2018-06-18T21:59:40.747Z,99.90
2018-06-18T22:02:09.139Z,99.90
2018-06-18T22:04:37.579Z,99.90
2018-06-18T22:07:06.264Z,99.90
2018-06-18T22:09:34.707Z,99.90
2018-06-18T22:12:03.151Z,99.90
2018-06-18T22:14:31.627Z,99.90
2018-06-18T22:17:00.053Z,99.90
2018-06-18T22:19:28.478Z,99.90
2018-06-18T22:21:56.908Z,99.90
2018-06-18T22:24:25.351Z,99.90
2018-06-18T22:26:53.789Z,99.90
2018-06-18T22:29:22.220Z,99.90
2018-06-18T22:31:50.632Z,99.90
2018-06-18T22:36:47.205Z,99.90
2018-06-18T22:39:15.753Z,99.90
2018-06-18T22:41:44.171Z,99.90
2018-06-18T22:44:12.587Z,99.90
2018-06-18T22:46:40.997Z,99.90
2018-06-18T22:49:09.407Z,99.90
2018-06-18T22:51:37.808Z,99.90
2018-06-18T22:54:06.265Z,99.90
2018-06-18T22:56:34.697Z,99.90
2018-06-18T22:59:03.109Z,99.90
2018-06-18T23:01:31.574Z,99.90
2018-06-18T23:04:00.029Z,99.90
2018-06-18T23:06:28.439Z,99.90
2018-06-18T23:08:56.880Z,99.90
2018-06-18T23:11:25.355Z,99.90
2018-06-18T23:13:53.771Z,99.90
2018-06-18T23:16:22.197Z,99.90
2018-06-18T23:18:50.628Z,99.90
2018-06-18T23:21:19.068Z,99.90
2018-06-18T23:23:47.492Z,99.90
2018-06-18T23:26:15.905Z,99.90
2018-06-18T23:28:50.521Z,99.90
2018-06-18T23:31:18.952Z,99.90
2018-06-18T23:33:47.347Z,99.90
2018-06-18T23:36:15.763Z,99.90
2018-06-18T23:38:44.192Z,99.90
2018-06-18T23:41:12.610Z,99.90
2018-06-18T23:43:41.016Z,99.90
2018-06-18T23:46:09.424Z,99.90
2018-06-18T23:48:37.822Z,99.90
2018-06-18T23:51:06.263Z,99.90
2018-06-18T23:53:34.655Z,99.90
2018-06-18T23:56:03.071Z,99.90
2018-06-18T23:58:31.491Z,99.90
